createdAt,value
2019-05-19T00:01:14.097Z,11.70
2019-05-19T00:03:45.602Z,11.70
2019-05-19T00:06:27.462Z,11.60
2019-05-19T00:09:00.475Z,11.60
2019-05-19T00:11:31.685Z,11.60
2019-05-19T00:14:03.266Z,11.50
2019-05-19T00:16:35.088Z,11.60
2019-05-19T00:19:06.499Z,11.60
2019-05-19T00:21:41.389Z,11.70
2019-05-19T00:24:14.022Z,11.70
2019-05-19T00:26:47.691Z,11.70
2019-05-19T00:29:19.682Z,11.60
2019-05-19T00:31:51.336Z,11.70
2019-05-19T00:34:22.735Z,11.70
2019-05-19T01:03:03.337Z,11.70
2019-05-19T01:05:34.981Z,11.70
2019-05-19T01:08:06.325Z,11.60
2019-05-19T01:10:37.708Z,11.70
2019-05-19T01:13:09.195Z,11.60
2019-05-19T01:15:40.810Z,11.60
2019-05-19T01:18:12.460Z,11.60
2019-05-19T01:20:43.569Z,11.60
2019-05-19T01:23:14.518Z,11.60
2019-05-19T01:25:45.123Z,11.60
2019-05-19T01:28:16.110Z,11.60
2019-05-19T01:30:48.840Z,11.60
2019-05-19T01:33:20.114Z,11.50
2019-05-19T01:35:51.461Z,11.60
2019-05-19T01:38:22.727Z,11.50
2019-05-19T01:40:53.385Z,11.60
2019-05-19T01:43:25.329Z,11.60
2019-05-19T01:45:56.373Z,11.60
2019-05-19T01:48:28.135Z,11.50
2019-05-19T01:50:59.791Z,11.50
2019-05-19T01:53:31.415Z,11.50
2019-05-19T01:56:02.690Z,11.50
2019-05-19T01:58:34.654Z,11.50
2019-05-19T02:01:06.183Z,11.40
2019-05-19T02:03:37.971Z,11.40
2019-05-19T02:06:09.230Z,11.40
2019-05-19T02:08:40.597Z,11.40
2019-05-19T02:11:26.388Z,11.40
2019-05-19T02:13:58.407Z,11.30
2019-05-19T02:16:29.100Z,11.40
2019-05-19T02:19:00.394Z,11.40
2019-05-19T02:21:31.313Z,11.40
2019-05-19T02:24:03.140Z,11.40
2019-05-19T02:26:34.706Z,11.40
2019-05-19T02:29:06.294Z,11.30
2019-05-19T02:31:37.646Z,11.40
2019-05-19T02:34:09.198Z,11.40
2019-05-19T02:36:40.422Z,11.40
2019-05-19T02:39:11.897Z,11.60
2019-05-19T02:41:46.006Z,11.50
2019-05-19T02:44:19.368Z,11.50
2019-05-19T02:46:50.436Z,11.50
2019-05-19T02:49:21.823Z,11.40
2019-05-19T02:51:55.050Z,11.40
2019-05-19T02:54:27.404Z,11.40
2019-05-19T02:56:58.673Z,11.40
2019-05-19T02:59:32.307Z,11.30
2019-05-19T03:02:14.163Z,11.30
2019-05-19T03:04:45.546Z,11.30
2019-05-19T03:07:16.868Z,11.20
2019-05-19T03:09:48.476Z,11.20
2019-05-19T03:12:20.202Z,11.20
2019-05-19T03:14:55.534Z,11.20
2019-05-19T03:17:27.176Z,11.20
2019-05-19T03:19:58.556Z,11.20
2019-05-19T03:22:29.946Z,11.20
2019-05-19T03:25:01.055Z,11.20
2019-05-19T03:27:32.290Z,11.20
2019-05-19T03:30:21.915Z,11.20
2019-05-19T03:32:56.248Z,11.30
2019-05-19T03:35:39.551Z,11.30
2019-05-19T03:38:11.120Z,11.30
2019-05-19T03:40:42.729Z,11.30
2019-05-19T03:43:13.708Z,11.30
2019-05-19T03:45:44.819Z,11.30
2019-05-19T03:48:15.825Z,11.30
2019-05-19T03:50:53.542Z,11.30
2019-05-19T03:53:24.560Z,11.30
2019-05-19T03:55:55.915Z,11.20
2019-05-19T03:58:27.599Z,11.20
2019-05-19T04:00:58.823Z,11.20
2019-05-19T04:03:29.478Z,11.20
2019-05-19T04:06:01.042Z,11.30
2019-05-19T04:08:32.263Z,11.30
2019-05-19T04:11:03.193Z,11.30
2019-05-19T04:13:33.814Z,11.30
2019-05-19T04:16:10.096Z,11.30
2019-05-19T04:18:41.987Z,11.30
2019-05-19T04:21:13.081Z,11.30
2019-05-19T04:23:44.746Z,11.40
2019-05-19T04:26:32.846Z,11.40
2019-05-19T04:29:04.127Z,11.50
2019-05-19T04:31:36.737Z,11.50
2019-05-19T04:34:08.457Z,11.60
2019-05-19T04:36:39.789Z,11.60
2019-05-19T04:39:10.447Z,11.70
2019-05-19T04:41:42.262Z,11.70
2019-05-19T04:44:13.243Z,11.70
2019-05-19T04:46:48.290Z,11.70
2019-05-19T04:49:19.525Z,11.70
2019-05-19T04:52:05.460Z,11.70
2019-05-19T04:54:23.652Z,11.70
2019-05-19T04:56:54.579Z,11.70
2019-05-19T04:59:26.644Z,11.80
2019-05-19T05:01:57.988Z,11.80
2019-05-19T05:04:29.848Z,11.90
2019-05-19T05:07:01.553Z,11.90
2019-05-19T05:09:32.781Z,11.90
2019-05-19T05:12:03.836Z,12.00
2019-05-19T05:14:34.755Z,12.10
2019-05-19T05:17:06.103Z,12.20
2019-05-19T05:19:37.035Z,12.30
2019-05-19T05:22:21.331Z,12.30
2019-05-19T05:24:43.427Z,12.40
2019-05-19T05:27:14.775Z,12.50
2019-05-19T05:29:46.379Z,12.50
2019-05-19T05:32:17.373Z,12.50
2019-05-19T05:34:48.293Z,12.60
2019-05-19T05:37:19.793Z,12.50
2019-05-19T05:39:51.334Z,12.50
2019-05-19T05:42:23.374Z,12.50
2019-05-19T05:44:54.308Z,12.60
2019-05-19T05:47:26.038Z,12.60
2019-05-19T05:49:57.360Z,12.70
2019-05-19T05:52:38.112Z,12.90
2019-05-19T05:55:01.395Z,12.90
2019-05-19T05:57:38.008Z,13.00
2019-05-19T06:00:09.800Z,13.10
2019-05-19T06:10:55.310Z,13.00
2019-05-19T06:16:12.004Z,13.20
2019-05-19T06:18:46.188Z,13.20
2019-05-19T06:21:17.451Z,13.10
2019-05-19T06:23:50.939Z,13.00
2019-05-19T06:26:22.620Z,12.90
2019-05-19T06:29:13.117Z,12.80
2019-05-19T06:31:49.502Z,12.70
2019-05-19T06:37:03.411Z,13.00
2019-05-19T06:39:47.239Z,13.10
2019-05-19T06:42:18.020Z,13.20
2019-05-19T06:44:53.160Z,13.20
2019-05-19T06:47:24.510Z,13.40
2019-05-19T06:52:38.363Z,14.00
2019-05-19T06:57:51.323Z,14.50
2019-05-19T07:00:41.235Z,14.50
2019-05-19T07:03:41.017Z,14.50
2019-05-19T07:09:12.860Z,14.10
2019-05-19T07:11:50.670Z,14.40
2019-05-19T07:14:26.040Z,14.50
2019-05-19T07:16:58.659Z,14.70
2019-05-19T07:19:30.374Z,14.80
2019-05-19T07:22:01.369Z,14.80
2019-05-19T07:24:34.785Z,15.20
2019-05-19T07:27:14.521Z,15.30
2019-05-19T07:29:47.930Z,15.60
2019-05-19T07:32:24.365Z,15.80
2019-05-19T07:34:59.894Z,15.90
2019-05-19T07:37:31.516Z,16.10
2019-05-19T07:40:03.824Z,16.10
2019-05-19T07:42:34.419Z,16.30
2019-05-19T07:45:06.459Z,17.00
2019-05-19T07:47:37.690Z,17.30
2019-05-19T07:50:08.668Z,17.30
2019-05-19T07:52:39.909Z,18.00
2019-05-19T07:55:13.001Z,18.20
2019-05-19T07:57:49.774Z,18.30
2019-05-19T08:00:20.402Z,18.10
2019-05-19T08:02:51.753Z,18.00
2019-05-19T08:05:26.907Z,17.80
2019-05-19T08:07:58.529Z,16.70
2019-05-19T08:10:29.811Z,16.70
2019-05-19T08:13:01.679Z,16.40
2019-05-19T08:15:33.214Z,16.60
2019-05-19T08:18:08.200Z,17.40
2019-05-19T08:20:39.251Z,18.60
2019-05-19T08:23:10.958Z,19.30
2019-05-19T08:25:42.191Z,20.00
2019-05-19T08:28:20.423Z,20.10
2019-05-19T08:30:52.071Z,20.40
2019-05-19T08:33:24.434Z,18.70
2019-05-19T08:35:56.787Z,17.80
2019-05-19T08:38:27.818Z,17.80
2019-05-19T08:40:59.363Z,17.60
2019-05-19T08:43:30.860Z,17.50
2019-05-19T08:46:02.181Z,17.30
2019-05-19T08:48:36.440Z,17.60
2019-05-19T08:51:07.954Z,17.60
2019-05-19T08:53:39.501Z,18.10
2019-05-19T08:56:11.098Z,18.20
2019-05-19T08:58:42.310Z,19.10
2019-05-19T09:01:13.658Z,19.60
2019-05-19T09:03:44.805Z,20.40
2019-05-19T09:06:16.063Z,20.20
2019-05-19T09:08:47.506Z,20.40
2019-05-19T09:11:19.159Z,19.90
2019-05-19T09:13:50.811Z,20.00
2019-05-19T09:16:26.649Z,19.30
2019-05-19T09:18:58.607Z,18.60
2019-05-19T09:21:30.212Z,18.20
2019-05-19T09:24:02.972Z,18.80
2019-05-19T09:26:34.960Z,19.40
2019-05-19T09:29:06.183Z,19.60
2019-05-19T09:31:41.097Z,19.40
2019-05-19T09:34:10.818Z,19.40
2019-05-19T09:36:47.069Z,20.10
2019-05-19T09:39:19.012Z,20.60
2019-05-19T09:41:50.376Z,21.10
2019-05-19T09:44:22.032Z,20.60
2019-05-19T09:47:08.624Z,19.60
2019-05-19T09:49:41.321Z,19.10
2019-05-19T09:52:16.519Z,19.30
2019-05-19T09:54:52.635Z,19.70
2019-05-19T09:57:28.523Z,19.90
2019-05-19T09:59:59.812Z,19.80
2019-05-19T10:02:31.455Z,20.00
2019-05-19T10:05:03.318Z,19.80
2019-05-19T10:07:35.233Z,19.90
2019-05-19T10:10:16.059Z,20.80
2019-05-19T10:12:47.530Z,20.30
2019-05-19T10:15:26.381Z,21.00
2019-05-19T10:17:57.352Z,21.40
2019-05-19T10:20:27.965Z,21.70
2019-05-19T10:22:59.513Z,21.40
2019-05-19T10:25:37.506Z,21.50
2019-05-19T10:28:09.473Z,21.10
2019-05-19T10:30:41.404Z,21.60
2019-05-19T10:33:22.142Z,21.70
2019-05-19T10:35:53.943Z,21.60
2019-05-19T10:38:25.631Z,21.00
2019-05-19T10:40:57.542Z,21.40
2019-05-19T10:43:37.391Z,21.40
2019-05-19T10:46:09.035Z,21.70
2019-05-19T10:48:40.383Z,21.70
2019-05-19T10:51:12.411Z,22.20
2019-05-19T10:53:43.795Z,21.40
2019-05-19T10:56:21.844Z,21.20
2019-05-19T10:58:53.499Z,21.10
2019-05-19T11:01:25.084Z,20.60
2019-05-19T11:03:56.613Z,20.80
2019-05-19T11:06:28.055Z,20.20
2019-05-19T11:08:58.691Z,20.40
2019-05-19T11:11:29.989Z,21.20
2019-05-19T11:14:00.931Z,20.90
2019-05-19T11:16:32.496Z,21.30
2019-05-19T11:19:03.875Z,22.20
2019-05-19T11:21:35.399Z,22.90
2019-05-19T11:24:06.530Z,24.00
2019-05-19T11:26:37.773Z,24.10
2019-05-19T11:29:09.163Z,23.80
2019-05-19T11:31:40.890Z,24.30
2019-05-19T11:34:12.222Z,24.50
2019-05-19T11:36:44.145Z,25.20
2019-05-19T11:39:15.169Z,25.60
2019-05-19T11:41:46.670Z,26.40
2019-05-19T11:44:17.932Z,24.80
2019-05-19T11:46:49.999Z,23.40
2019-05-19T11:49:21.729Z,23.30
2019-05-19T11:51:53.454Z,23.60
2019-05-19T11:54:25.375Z,23.70
2019-05-19T11:56:56.693Z,22.80
2019-05-19T11:59:27.887Z,22.30
2019-05-19T12:01:59.517Z,22.00
2019-05-19T12:04:30.861Z,22.50
2019-05-19T12:07:02.826Z,22.80
2019-05-19T12:09:34.619Z,22.60
2019-05-19T12:12:04.971Z,22.30
2019-05-19T12:14:36.677Z,22.10
2019-05-19T12:17:07.912Z,22.10
2019-05-19T12:19:39.777Z,21.50
2019-05-19T12:22:11.402Z,22.10
2019-05-19T12:24:42.290Z,22.10
2019-05-19T12:27:13.752Z,22.80
2019-05-19T12:29:44.421Z,22.80
2019-05-19T12:32:15.787Z,22.20
2019-05-19T12:34:46.873Z,22.20
2019-05-19T12:37:18.262Z,22.90
2019-05-19T12:39:49.852Z,23.80
2019-05-19T12:42:21.565Z,23.90
2019-05-19T12:44:52.929Z,23.40
2019-05-19T12:47:24.296Z,23.60
2019-05-19T12:49:55.342Z,24.00
2019-05-19T12:52:26.287Z,23.90
2019-05-19T12:54:57.388Z,23.40
2019-05-19T12:57:28.628Z,23.70
2019-05-19T12:59:59.938Z,24.40
2019-05-19T13:02:31.676Z,25.20
2019-05-19T13:05:05.511Z,25.50
2019-05-19T13:07:36.024Z,25.00
2019-05-19T13:10:08.161Z,25.30
2019-05-19T13:12:39.799Z,25.90
2019-05-19T13:15:11.976Z,25.80
2019-05-19T13:17:43.391Z,26.40
2019-05-19T13:20:15.107Z,27.00
2019-05-19T13:22:47.256Z,26.50
2019-05-19T13:25:18.283Z,25.50
2019-05-19T13:27:50.094Z,25.00
2019-05-19T13:30:21.107Z,25.40
2019-05-19T13:32:52.835Z,26.70
2019-05-19T13:35:24.156Z,26.00
2019-05-19T13:37:54.814Z,25.70
2019-05-19T13:40:26.127Z,25.90
2019-05-19T13:42:57.852Z,26.80
2019-05-19T13:45:29.479Z,25.70
2019-05-19T13:48:01.252Z,26.20
2019-05-19T13:50:36.500Z,25.40
2019-05-19T13:53:07.545Z,25.60
2019-05-19T13:55:38.863Z,24.50
2019-05-19T13:58:10.648Z,24.20
2019-05-19T14:00:41.957Z,23.90
2019-05-19T14:03:13.239Z,23.60
2019-05-19T14:05:44.256Z,23.60
2019-05-19T14:08:16.442Z,24.50
2019-05-19T14:10:47.134Z,24.30
2019-05-19T14:13:19.131Z,24.40
2019-05-19T14:15:50.626Z,23.30
2019-05-19T14:18:21.545Z,23.90
2019-05-19T14:20:52.879Z,24.20
2019-05-19T14:23:24.614Z,24.40
2019-05-19T14:25:56.209Z,24.30
2019-05-19T14:28:28.755Z,24.90
2019-05-19T14:30:59.681Z,24.90
2019-05-19T14:33:30.704Z,25.10
2019-05-19T14:36:02.458Z,25.70
2019-05-19T14:38:35.985Z,25.40
2019-05-19T14:41:06.931Z,24.80
2019-05-19T14:43:37.969Z,24.60
2019-05-19T14:46:09.293Z,25.30
2019-05-19T14:48:40.981Z,25.90
2019-05-19T14:51:12.525Z,25.80
2019-05-19T14:53:43.883Z,26.30
2019-05-19T14:56:15.536Z,25.60
2019-05-19T14:58:47.402Z,24.30
2019-05-19T15:01:19.160Z,24.50
2019-05-19T15:03:50.222Z,25.10
2019-05-19T15:06:21.539Z,26.10
2019-05-19T15:08:53.186Z,25.50
2019-05-19T15:11:24.226Z,24.90
2019-05-19T15:13:56.005Z,26.10
2019-05-19T15:16:27.261Z,25.90
2019-05-19T15:18:59.308Z,25.40
2019-05-19T15:21:31.956Z,24.60
2019-05-19T15:24:03.216Z,25.10
2019-05-19T15:26:35.203Z,26.20
2019-05-19T15:29:05.808Z,27.10
2019-05-19T15:31:37.489Z,27.60
2019-05-19T15:34:08.735Z,26.30
2019-05-19T15:36:40.292Z,24.70
2019-05-19T15:39:14.442Z,24.90
2019-05-19T15:41:44.725Z,24.90
2019-05-19T15:44:16.010Z,25.20
2019-05-19T15:46:47.396Z,24.70
2019-05-19T15:49:19.156Z,24.90
2019-05-19T15:52:02.027Z,25.10
2019-05-19T15:54:23.713Z,25.80
2019-05-19T15:56:55.579Z,25.90
2019-05-19T15:59:27.432Z,25.60
2019-05-19T16:01:58.484Z,24.90
2019-05-19T16:04:30.536Z,25.00
2019-05-19T16:07:01.822Z,24.50
2019-05-19T16:09:33.146Z,25.30
2019-05-19T16:12:04.767Z,25.20
2019-05-19T16:14:36.319Z,24.90
2019-05-19T16:17:07.153Z,23.50
2019-05-19T16:19:39.136Z,23.00
2019-05-19T16:22:10.254Z,22.00
2019-05-19T16:24:41.875Z,21.30
2019-05-19T16:27:13.180Z,20.90
2019-05-19T16:29:46.169Z,20.80
2019-05-19T16:32:17.717Z,20.10
2019-05-19T16:34:49.064Z,19.70
2019-05-19T16:37:20.303Z,19.10
2019-05-19T16:39:52.055Z,18.90
2019-05-19T16:42:23.433Z,18.50
2019-05-19T16:44:55.379Z,16.30
2019-05-19T16:47:27.173Z,14.80
2019-05-19T16:49:59.308Z,13.50
2019-05-19T16:52:30.841Z,11.70
2019-05-19T16:55:26.386Z,10.40
2019-05-19T16:57:58.123Z,10.00
2019-05-19T17:00:30.003Z,10.20
2019-05-19T17:03:01.478Z,10.80
2019-05-19T17:05:32.693Z,11.10
2019-05-19T17:08:04.051Z,11.30
2019-05-19T17:10:37.274Z,11.60
2019-05-19T17:13:08.263Z,11.70
2019-05-19T17:15:39.701Z,11.90
2019-05-19T17:18:11.134Z,12.00
2019-05-19T17:20:56.608Z,12.00
2019-05-19T17:23:28.630Z,12.00
2019-05-19T17:26:00.517Z,12.00
2019-05-19T17:28:31.821Z,12.20
2019-05-19T17:31:02.801Z,12.10
2019-05-19T17:33:33.791Z,12.10
2019-05-19T17:36:05.043Z,12.10
2019-05-19T17:38:36.888Z,12.10
2019-05-19T17:41:08.209Z,12.10
2019-05-19T17:43:40.580Z,12.10
2019-05-19T17:46:11.992Z,12.20
2019-05-19T17:48:43.125Z,12.30
2019-05-19T17:51:14.461Z,12.20
2019-05-19T17:53:46.561Z,12.20
2019-05-19T17:56:18.184Z,12.10
2019-05-19T17:58:50.754Z,12.10
2019-05-19T18:01:22.398Z,12.20
2019-05-19T18:03:54.190Z,12.20
2019-05-19T18:06:29.735Z,12.20
2019-05-19T18:09:01.030Z,12.40
2019-05-19T18:11:31.917Z,12.40
2019-05-19T18:14:03.498Z,12.40
2019-05-19T18:16:34.456Z,12.50
2019-05-19T18:19:06.334Z,12.50
2019-05-19T18:21:38.422Z,12.60
2019-05-19T18:24:13.955Z,12.40
2019-05-19T18:26:45.577Z,12.40
2019-05-19T18:29:30.544Z,12.20
2019-05-19T18:31:52.174Z,12.20
2019-05-19T18:34:23.467Z,12.20
2019-05-19T18:36:56.819Z,12.20
2019-05-19T18:39:39.626Z,12.10
2019-05-19T18:42:21.428Z,12.10
2019-05-19T18:45:03.370Z,12.10
2019-05-19T18:47:44.105Z,12.20
2019-05-19T18:50:31.133Z,12.30
2019-05-19T18:53:01.610Z,12.40
2019-05-19T18:55:33.231Z,12.40
2019-05-19T18:58:11.364Z,12.40
2019-05-19T19:00:46.049Z,12.50
2019-05-19T19:03:21.501Z,12.50
2019-05-19T19:05:54.914Z,12.50
2019-05-19T19:08:28.195Z,12.50
2019-05-19T19:10:59.765Z,12.40
2019-05-19T19:13:31.796Z,12.40
2019-05-19T19:16:05.908Z,12.40
2019-05-19T19:18:50.278Z,12.40
2019-05-19T19:21:23.128Z,12.50
2019-05-19T19:23:59.967Z,12.40
2019-05-19T19:26:34.627Z,12.40
2019-05-19T19:29:11.321Z,12.30
2019-05-19T19:31:48.893Z,12.40
2019-05-19T19:34:21.326Z,12.50
2019-05-19T19:36:57.479Z,12.50
2019-05-19T19:39:33.408Z,12.60
2019-05-19T19:42:09.270Z,12.50
2019-05-19T19:44:43.680Z,12.40
2019-05-19T19:47:16.701Z,12.30
2019-05-19T19:49:48.901Z,12.30
2019-05-19T19:52:25.144Z,12.40
2019-05-19T19:55:00.288Z,12.50
2019-05-19T19:57:31.748Z,12.50
2019-05-19T20:00:17.945Z,12.50
2019-05-19T20:02:47.555Z,12.50
2019-05-19T20:05:24.545Z,12.50
2019-05-19T20:08:00.707Z,12.50
2019-05-19T20:10:44.733Z,12.60
2019-05-19T20:13:27.769Z,12.60
2019-05-19T20:16:05.551Z,12.60
2019-05-19T20:18:51.242Z,12.70
2019-05-19T20:21:35.242Z,12.80
2019-05-19T20:24:06.356Z,12.80
2019-05-19T20:26:47.352Z,12.60
2019-05-19T20:29:19.745Z,12.50
2019-05-19T20:31:53.772Z,12.40
2019-05-19T20:34:25.498Z,12.40
2019-05-19T20:37:03.216Z,12.40
2019-05-19T20:39:35.816Z,12.50
2019-05-19T20:42:07.043Z,12.50
2019-05-19T20:44:38.429Z,12.50
2019-05-19T20:47:12.473Z,12.50
2019-05-19T20:49:44.445Z,12.60
2019-05-19T20:52:17.715Z,12.60
2019-05-19T20:55:10.951Z,12.60
2019-05-19T20:57:52.451Z,12.50
2019-05-19T21:00:25.434Z,12.60
2019-05-19T21:03:05.615Z,12.60
2019-05-19T21:05:38.960Z,12.60
2019-05-19T21:08:13.690Z,12.60
2019-05-19T21:10:51.988Z,12.60
2019-05-19T21:13:29.530Z,12.60
2019-05-19T21:16:04.310Z,12.60
2019-05-19T21:18:36.671Z,12.60
2019-05-19T21:21:15.476Z,12.60
2019-05-19T21:23:53.263Z,12.60
2019-05-19T21:26:27.283Z,12.70
2019-05-19T21:29:05.145Z,12.70
2019-05-19T21:31:43.820Z,12.70
2019-05-19T21:34:18.796Z,12.70
2019-05-19T21:36:52.424Z,12.80
2019-05-19T21:39:27.036Z,12.80
2019-05-19T21:42:03.080Z,12.80
2019-05-19T21:44:37.300Z,12.80
2019-05-19T21:47:18.681Z,12.70
2019-05-19T21:49:54.604Z,12.60
2019-05-19T21:52:29.352Z,12.60
2019-05-19T21:55:01.472Z,12.60
2019-05-19T21:57:36.411Z,12.60
2019-05-19T22:00:12.899Z,12.50
2019-05-19T22:03:01.901Z,12.50
2019-05-19T22:05:36.137Z,12.50
2019-05-19T22:08:15.275Z,12.40
2019-05-19T22:10:56.990Z,12.20
2019-05-19T22:13:34.263Z,12.20
2019-05-19T22:16:13.270Z,12.20
2019-05-19T22:18:46.287Z,12.10
2019-05-19T22:21:17.242Z,12.00
2019-05-19T22:23:55.398Z,11.90
2019-05-19T22:26:28.767Z,11.90
2019-05-19T22:29:03.918Z,11.90
2019-05-19T22:31:38.717Z,12.00
2019-05-19T22:34:15.578Z,12.00
2019-05-19T22:36:52.144Z,12.00
2019-05-19T22:39:25.010Z,12.00
2019-05-19T22:42:03.421Z,12.00
2019-05-19T22:44:40.215Z,12.00
2019-05-19T22:47:19.836Z,11.90
2019-05-19T22:49:57.603Z,11.90
2019-05-19T22:52:35.258Z,11.90
2019-05-19T22:55:09.582Z,12.00
2019-05-19T22:57:45.649Z,11.90
2019-05-19T23:00:19.612Z,11.80
2019-05-19T23:02:51.301Z,11.80
2019-05-19T23:05:23.540Z,11.80
2019-05-19T23:07:58.048Z,11.80
2019-05-19T23:10:34.277Z,11.70
2019-05-19T23:13:08.456Z,11.70
2019-05-19T23:15:41.405Z,11.70
2019-05-19T23:18:12.575Z,11.70
2019-05-19T23:20:46.771Z,11.70
2019-05-19T23:23:22.432Z,11.70
2019-05-19T23:25:55.828Z,11.70
2019-05-19T23:28:28.740Z,11.70
2019-05-19T23:31:03.376Z,11.70
2019-05-19T23:33:36.739Z,11.70
2019-05-19T23:36:09.088Z,11.80
2019-05-19T23:38:43.312Z,11.80
2019-05-19T23:41:19.686Z,11.90
2019-05-19T23:43:50.676Z,12.00
2019-05-19T23:46:26.103Z,12.00
2019-05-19T23:48:59.607Z,12.10
2019-05-19T23:51:32.828Z,12.20
2019-05-19T23:54:06.093Z,12.20
2019-05-19T23:56:41.158Z,12.30
2019-05-19T23:59:16.914Z,12.30
